createdAt,value
2023-02-15T00:03:24.440Z,102740.66
2023-02-15T00:08:47.138Z,102745.10
2023-02-15T00:14:09.503Z,102741.63
2023-02-15T00:19:33.318Z,102737.27
2023-02-15T00:24:55.578Z,102740.83
2023-02-15T00:30:18.478Z,102736.46
2023-02-15T00:35:40.871Z,102732.94
2023-02-15T00:41:08.439Z,102737.38
2023-02-15T00:46:30.905Z,102725.94
2023-02-15T00:51:53.240Z,102720.66
2023-02-15T00:57:18.726Z,102732.09
2023-02-15T01:02:41.164Z,102725.08
2023-02-15T01:08:04.295Z,102716.28
2023-02-15T01:13:28.156Z,102716.28
2023-02-15T01:18:50.794Z,102715.37
2023-02-15T01:24:13.319Z,102718.02
2023-02-15T01:29:36.489Z,102721.56
2023-02-15T01:34:58.911Z,102707.48
2023-02-15T01:40:25.589Z,102703.95
2023-02-15T01:45:49.773Z,102694.27
2023-02-15T01:51:15.362Z,102688.98
2023-02-15T01:56:41.568Z,102684.59
2023-02-15T02:02:06.310Z,102683.72
2023-02-15T02:07:33.788Z,102673.16
2023-02-15T02:13:00.463Z,102662.59
2023-02-15T02:18:47.153Z,102664.34
2023-02-15T02:24:37.947Z,102658.19
2023-02-15T02:30:35.531Z,102664.37
2023-02-15T02:36:36.229Z,102666.11
2023-02-15T02:42:26.260Z,102659.06
2023-02-15T02:48:23.619Z,102664.34
2023-02-15T02:53:47.860Z,102661.70
2023-02-15T02:59:23.606Z,102660.83
2023-02-15T03:04:50.719Z,102653.78
2023-02-15T03:10:16.589Z,102647.65
2023-02-15T03:16:01.656Z,102644.98
2023-02-15T03:21:28.884Z,102639.70
2023-02-15T03:26:54.501Z,102646.72
2023-02-15T03:32:20.198Z,102640.56
2023-02-15T03:37:49.762Z,102630.88
2023-02-15T03:43:28.932Z,102638.77
2023-02-15T03:48:58.970Z,102639.65
2023-02-15T04:00:48.330Z,102635.27
2023-02-15T04:06:10.717Z,102636.14
2023-02-15T04:11:33.026Z,102636.13
2023-02-15T04:16:55.400Z,102638.77
2023-02-15T04:22:36.296Z,102629.97
2023-02-15T04:28:01.778Z,102624.72
2023-02-15T04:33:24.186Z,102627.36
2023-02-15T04:38:46.802Z,102624.73
2023-02-15T04:44:09.189Z,102615.94
2023-02-15T04:49:31.393Z,102613.30
2023-02-15T04:54:53.991Z,102607.14
2023-02-15T05:00:18.639Z,102607.14
2023-02-15T05:05:41.754Z,102606.25
2023-02-15T05:11:05.112Z,102600.11
2023-02-15T05:16:29.280Z,102608.00
2023-02-15T05:21:52.685Z,102606.27
2023-02-15T05:27:33.331Z,102608.88
2023-02-15T05:32:55.634Z,102607.12
2023-02-15T05:38:18.487Z,102604.50
2023-02-15T05:43:41.289Z,102613.30
2023-02-15T05:49:03.576Z,102618.57
2023-02-15T05:54:26.017Z,102609.78
2023-02-15T05:59:48.373Z,102608.89
2023-02-15T06:05:11.806Z,102607.14
2023-02-15T06:10:34.369Z,102609.77
2023-02-15T06:15:56.776Z,102601.84
2023-02-15T06:21:19.143Z,102601.88
2023-02-15T06:26:41.374Z,102602.75
2023-02-15T06:32:03.649Z,102616.84
2023-02-15T06:37:25.924Z,102614.20
2023-02-15T06:42:51.857Z,102611.55
2023-02-15T06:48:14.247Z,102609.78
2023-02-15T06:53:37.200Z,102603.62
2023-02-15T06:59:00.144Z,102608.03
2023-02-15T07:04:23.280Z,102605.38
2023-02-15T07:09:45.918Z,102600.97
2023-02-15T07:15:08.936Z,102596.58
2023-02-15T07:20:39.096Z,102579.86
2023-02-15T07:26:07.713Z,102580.73
2023-02-15T07:31:30.399Z,102578.08
2023-02-15T07:36:53.360Z,102574.54
2023-02-15T07:42:15.736Z,102577.16
2023-02-15T07:47:38.024Z,102577.15
2023-02-15T07:53:00.386Z,102574.45
2023-02-15T07:58:24.458Z,102567.39
2023-02-15T08:03:46.935Z,102563.83
2023-02-15T08:09:13.621Z,102552.30
2023-02-15T08:14:37.137Z,102549.59
2023-02-15T08:20:00.049Z,102536.36
2023-02-15T08:25:22.823Z,102523.96
2023-02-15T08:30:45.098Z,102522.98
2023-02-15T08:36:14.500Z,102510.54
2023-02-15T08:41:46.246Z,102517.34
2023-02-15T08:47:08.569Z,102517.19
2023-02-15T08:52:31.278Z,102506.44
2023-02-15T08:57:55.248Z,102499.36
2023-02-15T09:03:17.628Z,102500.02
2023-02-15T09:08:40.591Z,102492.01
2023-02-15T09:14:05.672Z,102484.78
2023-02-15T09:19:30.772Z,102485.45
2023-02-15T09:24:53.145Z,102479.97
2023-02-15T09:30:16.314Z,102482.27
2023-02-15T09:35:38.718Z,102479.42
2023-02-15T09:41:08.919Z,102474.03
2023-02-15T09:46:51.152Z,102473.32
2023-02-15T09:52:18.230Z,102468.78
2023-02-15T09:57:48.100Z,102455.28
2023-02-15T10:03:16.208Z,102460.59
2023-02-15T10:08:49.067Z,102447.16
2023-02-15T10:15:01.613Z,102444.51
2023-02-15T10:20:48.499Z,102440.43
2023-02-15T10:26:36.889Z,102435.46
2023-02-15T10:32:31.877Z,102433.48
2023-02-15T10:38:19.185Z,102437.74
2023-02-15T10:44:07.247Z,102430.86
2023-02-15T10:50:08.034Z,102418.64
2023-02-15T10:55:38.158Z,102424.71
2023-02-15T11:01:34.297Z,102424.62
2023-02-15T11:07:01.170Z,102414.70
2023-02-15T11:12:28.235Z,102401.38
2023-02-15T11:17:55.422Z,102407.52
2023-02-15T11:23:23.853Z,102397.78
2023-02-15T11:28:56.957Z,102385.35
2023-02-15T11:34:30.305Z,102378.67
2023-02-15T11:39:55.598Z,102367.77
2023-02-15T11:45:46.848Z,102360.20
2023-02-15T11:51:10.198Z,102355.50
2023-02-15T11:56:37.764Z,102347.11
2023-02-15T12:02:02.596Z,102354.06
2023-02-15T12:07:36.631Z,102351.52
2023-02-15T12:13:17.422Z,102340.73
2023-02-15T12:18:54.884Z,102346.95
2023-02-15T12:24:30.134Z,102330.28
2023-02-15T12:30:06.862Z,102329.23
2023-02-15T12:35:41.901Z,102321.37
2023-02-15T12:41:15.571Z,102314.49
2023-02-15T12:46:47.414Z,102300.41
2023-02-15T12:52:29.592Z,102307.28
2023-02-15T12:57:52.538Z,102293.88
2023-02-15T13:03:18.753Z,102285.10
2023-02-15T13:08:48.376Z,102274.59
2023-02-15T13:14:35.656Z,102260.39
2023-02-15T13:20:06.462Z,102263.10
2023-02-15T13:25:36.457Z,102257.31
2023-02-15T13:30:54.667Z,102256.20
2023-02-15T13:36:58.902Z,102258.47
2023-02-15T13:43:09.148Z,102249.97
2023-02-15T13:49:04.920Z,102249.84
2023-02-15T13:54:53.186Z,102250.97
2023-02-15T14:00:29.247Z,102245.42
2023-02-15T14:06:24.410Z,102232.18
2023-02-15T14:12:23.527Z,102221.30
2023-02-15T14:18:10.075Z,102221.26
2023-02-15T14:23:50.351Z,102208.51
2023-02-15T14:29:09.663Z,102215.28
2023-02-15T14:34:55.151Z,102217.57
2023-02-15T14:40:52.898Z,102217.06
2023-02-15T14:46:29.064Z,102206.72
2023-02-15T14:52:06.694Z,102207.87
2023-02-15T14:57:35.797Z,102204.45
2023-02-15T15:03:03.628Z,102190.45
2023-02-15T15:08:41.722Z,102194.94
2023-02-15T15:14:18.858Z,102189.85
2023-02-15T15:20:03.212Z,102185.59
2023-02-15T15:25:53.896Z,102181.34
2023-02-15T15:31:28.131Z,102174.30
2023-02-15T15:43:09.900Z,102165.64
2023-02-15T15:48:52.225Z,102167.66
2023-02-15T15:54:24.600Z,102165.02
2023-02-15T15:59:50.330Z,102154.47
2023-02-15T16:05:22.799Z,102145.68
2023-02-15T16:10:47.609Z,102142.16
2023-02-15T16:16:12.022Z,102137.76
2023-02-15T16:21:39.319Z,102132.52
2023-02-15T16:27:26.185Z,102137.89
2023-02-15T16:32:50.359Z,102120.23
2023-02-15T16:38:15.773Z,102113.23
2023-02-15T16:43:41.553Z,102103.59
2023-02-15T16:49:08.544Z,102100.17
2023-02-15T16:54:35.380Z,102102.86
2023-02-15T17:00:15.382Z,102091.38
2023-02-15T17:05:41.844Z,102082.66
2023-02-15T17:11:23.947Z,102083.00
2023-02-15T17:17:00.119Z,102069.17
2023-02-15T17:22:30.731Z,102069.36
2023-02-15T17:27:55.608Z,102064.24
2023-02-15T17:33:30.344Z,102061.72
2023-02-15T17:39:07.988Z,102070.77
2023-02-15T17:44:30.350Z,102071.84
2023-02-15T17:49:53.088Z,102075.42
2023-02-15T17:55:38.769Z,102070.34
2023-02-15T18:01:23.232Z,102064.38
2023-02-15T18:07:06.329Z,102064.59
2023-02-15T18:12:44.064Z,102053.95
2023-02-15T18:18:06.954Z,102053.19
2023-02-15T18:23:30.976Z,102057.59
2023-02-15T18:28:53.375Z,102056.72
2023-02-15T18:34:20.324Z,102061.19
2023-02-15T18:39:49.722Z,102054.33
2023-02-15T18:45:30.446Z,102061.45
2023-02-15T18:50:54.250Z,102057.20
2023-02-15T18:56:20.817Z,102059.11
2023-02-15T19:01:43.666Z,102048.62
2023-02-15T19:07:07.442Z,102057.41
2023-02-15T19:12:31.454Z,102037.98
2023-02-15T19:17:54.192Z,102035.45
2023-02-15T19:23:20.757Z,102028.45
2023-02-15T19:28:51.633Z,102028.34
2023-02-15T19:34:19.977Z,102015.38
2023-02-15T19:39:51.534Z,102002.27
2023-02-15T19:45:18.186Z,101990.86
2023-02-15T19:50:46.651Z,101987.41
2023-02-15T19:56:09.355Z,101985.58
2023-02-15T20:01:31.691Z,101975.87
2023-02-15T20:06:54.419Z,101958.37
2023-02-15T20:12:19.091Z,101954.05
2023-02-15T20:17:41.706Z,101940.09
2023-02-15T20:23:05.350Z,101935.69
2023-02-15T20:28:32.109Z,101937.47
2023-02-15T20:33:55.147Z,101941.93
2023-02-15T20:39:29.584Z,101942.89
2023-02-15T20:44:51.962Z,101944.72
2023-02-15T20:50:14.304Z,101945.59
2023-02-15T20:55:42.993Z,101933.38
2023-02-15T21:01:06.483Z,101937.78
2023-02-15T21:06:30.384Z,101927.35
2023-02-15T21:11:52.876Z,101915.10
2023-02-15T21:17:17.197Z,101910.72
2023-02-15T21:22:41.492Z,101908.12
2023-02-15T21:28:03.793Z,101886.09
2023-02-15T21:33:26.528Z,101886.14
2023-02-15T21:38:49.819Z,101880.80
2023-02-15T21:44:40.305Z,101881.62
2023-02-15T21:49:56.347Z,101879.09
2023-02-15T21:55:21.176Z,101871.17
2023-02-15T22:00:44.243Z,101862.45
2023-02-15T22:06:06.622Z,101876.61
2023-02-15T22:11:34.220Z,101871.38
2023-02-15T22:16:56.659Z,101873.20
2023-02-15T22:22:18.957Z,101871.51
2023-02-15T22:27:45.165Z,101864.49
2023-02-15T22:33:10.637Z,101868.92
2023-02-15T22:38:32.339Z,101852.16
2023-02-15T22:44:00.523Z,101853.04
2023-02-15T22:49:25.040Z,101853.00
2023-02-15T22:54:47.284Z,101841.70
2023-02-15T23:00:11.079Z,101838.23
2023-02-15T23:05:42.192Z,101839.92
2023-02-15T23:11:07.542Z,101846.13
2023-02-15T23:16:31.465Z,101833.77
2023-02-15T23:21:55.901Z,101826.77
2023-02-15T23:27:40.897Z,101838.23
2023-02-15T23:33:04.780Z,101827.72
2023-02-15T23:38:39.393Z,101820.75
2023-02-15T23:44:10.501Z,101810.15
2023-02-15T23:49:34.163Z,101799.57
2023-02-15T23:54:56.398Z,101798.63
